createdAt,value
2019-02-16T00:00:49.865Z,69.70
2019-02-16T00:03:18.299Z,69.70
2019-02-16T00:05:46.847Z,69.70
2019-02-16T00:08:16.161Z,69.60
2019-02-16T00:10:46.135Z,69.60
2019-02-16T00:13:15.590Z,69.60
2019-02-16T00:15:45.655Z,69.60
2019-02-16T00:18:14.973Z,69.50
2019-02-16T00:20:43.512Z,69.50
2019-02-16T00:23:12.092Z,69.60
2019-02-16T00:25:41.186Z,69.70
2019-02-16T00:28:10.250Z,69.80
2019-02-16T00:30:38.777Z,69.70
2019-02-16T00:33:08.451Z,69.80
2019-02-16T00:35:37.932Z,69.90
2019-02-16T00:38:06.375Z,69.90
2019-02-16T00:40:34.857Z,69.90
2019-02-16T00:43:04.252Z,69.90
2019-02-16T00:45:35.921Z,69.90
2019-02-16T00:48:04.960Z,70.00
2019-02-16T00:50:35.015Z,70.10
2019-02-16T00:53:04.964Z,70.20
2019-02-16T00:55:33.438Z,70.20
2019-02-16T00:58:03.202Z,70.30
2019-02-16T01:00:31.735Z,70.30
2019-02-16T01:03:00.245Z,70.40
2019-02-16T01:05:28.769Z,70.40
2019-02-16T01:07:57.753Z,70.50
2019-02-16T01:10:27.415Z,70.50
2019-02-16T01:12:56.771Z,70.50
2019-02-16T01:15:27.058Z,70.50
2019-02-16T01:17:55.597Z,70.50
2019-02-16T01:20:24.115Z,70.40
2019-02-16T01:22:52.617Z,70.30
2019-02-16T01:25:21.165Z,70.20
2019-02-16T01:27:51.302Z,70.20
2019-02-16T01:30:19.910Z,70.20
2019-02-16T01:32:49.944Z,70.20
2019-02-16T01:35:18.523Z,70.00
2019-02-16T01:37:47.100Z,70.10
2019-02-16T01:40:17.135Z,70.10
2019-02-16T01:42:47.070Z,70.20
2019-02-16T01:45:15.915Z,70.30
2019-02-16T01:47:44.442Z,70.30
2019-02-16T01:50:12.897Z,70.50
2019-02-16T01:52:45.338Z,70.60
2019-02-16T01:55:17.513Z,70.70
2019-02-16T01:57:46.633Z,70.80
2019-02-16T02:00:17.673Z,70.90
2019-02-16T02:02:46.306Z,71.00
2019-02-16T02:05:15.054Z,70.90
2019-02-16T02:07:44.135Z,71.10
2019-02-16T02:10:13.537Z,72.00
2019-02-16T02:12:42.049Z,71.10
2019-02-16T02:15:10.741Z,71.10
2019-02-16T02:17:39.395Z,71.20
2019-02-16T02:20:09.358Z,71.20
2019-02-16T02:22:38.009Z,71.20
2019-02-16T02:25:10.476Z,71.30
2019-02-16T02:27:40.226Z,71.30
2019-02-16T02:30:12.117Z,71.30
2019-02-16T02:32:43.263Z,71.30
2019-02-16T02:35:13.172Z,71.40
2019-02-16T02:37:41.694Z,71.50
2019-02-16T02:40:10.404Z,71.60
2019-02-16T02:42:42.024Z,71.60
2019-02-16T02:45:11.167Z,72.00
2019-02-16T02:47:39.739Z,71.80
2019-02-16T02:50:09.639Z,71.80
2019-02-16T02:52:38.207Z,71.90
2019-02-16T02:55:09.562Z,72.10
2019-02-16T02:57:38.130Z,72.20
2019-02-16T03:00:09.558Z,72.20
2019-02-16T03:02:38.199Z,72.20
2019-02-16T03:05:09.100Z,72.50
2019-02-16T03:07:37.797Z,72.70
2019-02-16T03:10:07.396Z,72.80
2019-02-16T03:12:35.958Z,72.80
2019-02-16T03:15:05.704Z,73.00
2019-02-16T03:17:34.283Z,73.80
2019-02-16T03:20:03.637Z,72.90
2019-02-16T03:22:55.752Z,72.90
2019-02-16T03:25:24.321Z,72.80
2019-02-16T03:28:12.400Z,72.80
2019-02-16T03:30:50.810Z,72.70
2019-02-16T03:33:25.047Z,72.10
2019-02-16T03:36:11.488Z,72.60
2019-02-16T03:38:48.903Z,72.50
2019-02-16T03:41:17.393Z,72.50
2019-02-16T03:43:45.882Z,72.30
2019-02-16T03:46:17.047Z,72.20
2019-02-16T03:48:45.565Z,72.40
2019-02-16T03:51:16.877Z,72.40
2019-02-16T03:53:47.258Z,72.30
2019-02-16T03:56:16.121Z,72.30
2019-02-16T03:58:44.739Z,72.30
2019-02-16T04:01:13.335Z,72.40
2019-02-16T04:03:41.896Z,72.30
2019-02-16T04:06:10.760Z,72.30
2019-02-16T04:08:40.466Z,72.20
2019-02-16T04:11:09.034Z,72.30
2019-02-16T04:13:37.562Z,72.30
2019-02-16T04:16:07.026Z,72.20
2019-02-16T04:18:37.855Z,72.10
2019-02-16T04:21:06.454Z,72.20
2019-02-16T04:23:35.032Z,72.20
2019-02-16T04:26:06.179Z,72.20
2019-02-16T04:28:34.701Z,72.30
2019-02-16T04:31:03.191Z,72.30
2019-02-16T04:33:31.911Z,72.30
2019-02-16T04:36:03.277Z,72.30
2019-02-16T04:38:31.786Z,72.60
2019-02-16T04:41:00.245Z,72.50
2019-02-16T04:43:29.013Z,72.50
2019-02-16T04:45:59.073Z,72.60
2019-02-16T04:48:27.693Z,72.70
2019-02-16T04:51:02.054Z,72.80
2019-02-16T04:53:30.606Z,72.70
2019-02-16T04:56:02.989Z,72.80
2019-02-16T04:58:37.927Z,72.80
2019-02-16T05:01:06.463Z,72.90
2019-02-16T05:03:35.578Z,73.00
2019-02-16T05:06:04.867Z,73.00
2019-02-16T05:08:33.418Z,73.10
2019-02-16T05:11:03.195Z,73.10
2019-02-16T05:13:31.699Z,73.20
2019-02-16T05:16:01.949Z,73.30
2019-02-16T05:18:31.519Z,73.40
2019-02-16T05:21:01.136Z,73.50
2019-02-16T05:23:30.168Z,73.60
2019-02-16T05:26:04.470Z,73.60
2019-02-16T05:28:34.534Z,74.00
2019-02-16T05:31:03.041Z,73.80
2019-02-16T05:33:31.605Z,73.80
2019-02-16T05:36:04.328Z,73.90
2019-02-16T05:38:33.129Z,74.30
2019-02-16T05:41:01.584Z,74.20
2019-02-16T05:43:30.119Z,74.20
2019-02-16T05:45:58.608Z,74.20
2019-02-16T05:48:27.203Z,74.20
2019-02-16T05:50:56.086Z,74.30
2019-02-16T05:53:26.294Z,74.20
2019-02-16T05:55:54.811Z,74.10
2019-02-16T05:58:23.783Z,74.00
2019-02-16T06:00:54.966Z,74.10
2019-02-16T06:03:25.140Z,74.00
2019-02-16T06:05:54.083Z,73.90
2019-02-16T06:08:24.446Z,73.90
2019-02-16T06:10:54.271Z,73.90
2019-02-16T06:13:24.693Z,73.80
2019-02-16T06:15:53.242Z,73.70
2019-02-16T06:18:24.676Z,73.60
2019-02-16T06:20:54.858Z,73.50
2019-02-16T06:23:23.981Z,73.60
2019-02-16T06:25:53.634Z,73.60
2019-02-16T06:28:23.062Z,73.50
2019-02-16T06:30:52.092Z,73.50
2019-02-16T06:33:20.676Z,73.40
2019-02-16T06:35:50.855Z,73.30
2019-02-16T06:38:19.392Z,73.30
2019-02-16T06:40:48.207Z,73.20
2019-02-16T06:43:16.790Z,73.20
2019-02-16T06:45:45.244Z,73.20
2019-02-16T06:48:13.757Z,73.20
2019-02-16T06:50:45.144Z,73.20
2019-02-16T06:53:13.777Z,73.20
2019-02-16T06:55:45.539Z,73.30
2019-02-16T06:58:14.127Z,73.30
2019-02-16T07:00:44.131Z,73.30
2019-02-16T07:03:12.697Z,73.20
2019-02-16T07:05:41.224Z,73.20
2019-02-16T07:08:09.680Z,73.20
2019-02-16T07:10:39.881Z,73.20
2019-02-16T07:13:10.147Z,73.10
2019-02-16T07:15:40.789Z,73.10
2019-02-16T07:18:11.047Z,73.10
2019-02-16T07:20:39.496Z,73.10
2019-02-16T07:23:07.951Z,73.10
2019-02-16T07:25:36.464Z,73.10
2019-02-16T07:28:06.034Z,73.10
2019-02-16T07:30:34.494Z,73.20
2019-02-16T07:33:03.437Z,73.20
2019-02-16T07:35:32.081Z,73.10
2019-02-16T07:38:00.678Z,73.10
2019-02-16T07:40:30.707Z,73.80
2019-02-16T07:43:00.550Z,73.20
2019-02-16T07:45:30.742Z,73.10
2019-02-16T07:48:05.629Z,73.10
2019-02-16T07:50:53.799Z,73.00
2019-02-16T07:53:31.354Z,72.90
2019-02-16T07:55:58.628Z,72.80
2019-02-16T07:58:33.690Z,72.70
2019-02-16T08:01:21.728Z,72.80
2019-02-16T08:03:57.534Z,72.70
2019-02-16T08:06:39.830Z,72.60
2019-02-16T08:09:13.122Z,72.40
2019-02-16T08:11:50.368Z,72.40
2019-02-16T08:14:45.603Z,72.30
2019-02-16T08:17:20.714Z,72.30
2019-02-16T08:20:04.184Z,72.20
2019-02-16T08:22:34.327Z,72.20
2019-02-16T08:25:13.601Z,72.10
2019-02-16T08:27:45.283Z,72.10
2019-02-16T08:30:31.156Z,72.00
2019-02-16T08:33:16.593Z,71.90
2019-02-16T08:35:55.220Z,72.50
2019-02-16T08:38:28.639Z,71.60
2019-02-16T08:41:16.935Z,71.60
2019-02-16T08:43:50.646Z,71.20
2019-02-16T08:46:30.838Z,70.90
2019-02-16T08:49:03.972Z,70.70
2019-02-16T08:51:35.289Z,70.50
2019-02-16T08:54:21.285Z,70.00
2019-02-16T08:56:51.663Z,69.80
2019-02-16T08:59:40.753Z,69.20
2019-02-16T09:02:16.419Z,69.00
2019-02-16T09:04:50.726Z,68.60
2019-02-16T09:07:29.517Z,68.30
2019-02-16T09:10:02.379Z,68.20
2019-02-16T09:12:32.489Z,68.00
2019-02-16T09:15:06.565Z,67.80
2019-02-16T09:17:42.729Z,67.60
2019-02-16T09:20:12.845Z,67.30
2019-02-16T09:22:59.392Z,67.90
2019-02-16T09:25:29.491Z,66.80
2019-02-16T09:28:05.729Z,66.30
2019-02-16T09:30:35.877Z,66.20
2019-02-16T09:33:14.672Z,65.80
2019-02-16T09:35:58.460Z,65.70
2019-02-16T09:38:37.848Z,65.40
2019-02-16T09:41:09.629Z,65.00
2019-02-16T09:43:39.788Z,64.70
2019-02-16T09:46:09.916Z,64.60
2019-02-16T09:48:52.139Z,64.50
2019-02-16T09:51:29.067Z,64.10
2019-02-16T09:54:16.833Z,63.90
2019-02-16T09:56:50.459Z,63.90
2019-02-16T09:59:22.317Z,63.60
2019-02-16T10:02:02.283Z,63.20
2019-02-16T10:04:35.354Z,63.10
2019-02-16T10:07:24.547Z,63.10
2019-02-16T10:10:12.412Z,62.80
2019-02-16T10:12:42.551Z,62.10
2019-02-16T10:15:27.776Z,62.10
2019-02-16T10:18:09.594Z,61.90
2019-02-16T10:20:42.340Z,61.80
2019-02-16T10:23:15.103Z,61.60
2019-02-16T10:26:00.617Z,61.30
2019-02-16T10:28:36.975Z,61.30
2019-02-16T10:31:10.508Z,61.00
2019-02-16T10:33:43.615Z,61.00
2019-02-16T10:36:30.212Z,60.70
2019-02-16T10:39:00.447Z,60.80
2019-02-16T10:41:33.618Z,60.60
2019-02-16T10:44:07.853Z,60.10
2019-02-16T10:46:40.455Z,59.80
2019-02-16T10:49:12.603Z,59.50
2019-02-16T10:51:44.279Z,59.50
2019-02-16T10:54:26.568Z,59.40
2019-02-16T10:57:05.985Z,59.20
2019-02-16T10:59:38.777Z,58.90
2019-02-16T11:02:11.763Z,58.60
2019-02-16T11:04:44.359Z,58.40
2019-02-16T11:07:21.284Z,58.30
2019-02-16T11:09:51.715Z,58.10
2019-02-16T11:12:21.823Z,58.00
2019-02-16T11:15:03.988Z,58.00
2019-02-16T11:17:40.295Z,57.80
2019-02-16T11:20:14.287Z,57.60
2019-02-16T11:22:53.991Z,57.50
2019-02-16T11:25:32.224Z,57.30
2019-02-16T11:28:08.189Z,57.40
2019-02-16T11:30:38.411Z,57.10
2019-02-16T11:33:24.787Z,57.20
2019-02-16T11:36:02.434Z,57.10
2019-02-16T11:38:50.904Z,57.60
2019-02-16T11:41:26.065Z,56.80
2019-02-16T11:44:00.404Z,56.70
2019-02-16T11:46:50.057Z,56.70
2019-02-16T11:49:35.192Z,56.50
2019-02-16T11:52:11.945Z,56.40
2019-02-16T11:54:54.241Z,56.20
2019-02-16T11:57:41.845Z,56.00
2019-02-16T12:00:17.724Z,56.00
2019-02-16T12:02:47.820Z,55.90
2019-02-16T12:05:26.155Z,55.70
2019-02-16T12:08:02.393Z,55.80
2019-02-16T12:10:36.115Z,55.50
2019-02-16T12:13:06.509Z,55.20
2019-02-16T12:15:53.131Z,55.20
2019-02-16T12:18:40.883Z,55.10
2019-02-16T12:21:21.747Z,55.30
2019-02-16T12:23:58.019Z,55.10
2019-02-16T12:26:28.323Z,55.20
2019-02-16T12:29:17.269Z,55.00
2019-02-16T12:31:47.433Z,54.90
2019-02-16T12:34:20.430Z,54.90
2019-02-16T12:37:02.043Z,54.80
2019-02-16T12:39:32.213Z,54.90
2019-02-16T12:42:05.163Z,54.90
2019-02-16T12:44:36.860Z,54.90
2019-02-16T12:47:08.698Z,54.90
2019-02-16T12:49:40.360Z,54.90
2019-02-16T12:52:10.537Z,55.00
2019-02-16T12:54:43.679Z,55.00
2019-02-16T12:57:17.341Z,55.00
2019-02-16T12:59:52.069Z,55.00
2019-02-16T13:02:22.210Z,55.00
2019-02-16T13:04:57.064Z,55.80
2019-02-16T13:07:29.168Z,55.00
2019-02-16T13:09:59.063Z,55.00
2019-02-16T13:12:32.679Z,55.00
2019-02-16T13:15:05.564Z,55.00
2019-02-16T13:17:47.508Z,54.60
2019-02-16T13:20:17.747Z,54.80
2019-02-16T13:22:55.142Z,54.50
2019-02-16T13:25:28.253Z,54.70
2019-02-16T13:27:59.908Z,54.90
2019-02-16T13:30:30.014Z,54.70
2019-02-16T13:33:08.754Z,54.60
2019-02-16T13:35:55.352Z,54.60
2019-02-16T13:38:25.473Z,54.50
2019-02-16T13:40:58.553Z,54.30
2019-02-16T13:43:34.207Z,54.40
2019-02-16T13:46:06.793Z,54.40
2019-02-16T13:48:36.921Z,54.50
2019-02-16T13:51:08.383Z,54.70
2019-02-16T13:53:54.735Z,54.60
2019-02-16T13:56:44.204Z,54.60
2019-02-16T13:59:26.148Z,54.70
2019-02-16T14:01:59.016Z,54.60
2019-02-16T14:04:36.312Z,54.60
2019-02-16T14:07:21.195Z,54.80
2019-02-16T14:10:08.654Z,55.00
2019-02-16T14:12:51.458Z,55.00
2019-02-16T14:15:29.559Z,54.90
2019-02-16T14:17:59.971Z,54.90
2019-02-16T14:20:30.171Z,54.60
2019-02-16T14:22:58.627Z,54.60
2019-02-16T14:25:43.800Z,54.50
2019-02-16T14:28:08.862Z,54.50
2019-02-16T14:30:39.010Z,54.60
2019-02-16T14:33:07.573Z,54.30
2019-02-16T14:35:37.559Z,54.30
2019-02-16T14:38:10.363Z,54.30
2019-02-16T14:40:38.892Z,54.10
2019-02-16T14:43:07.370Z,54.00
2019-02-16T14:45:37.508Z,53.50
2019-02-16T14:48:06.033Z,53.20
2019-02-16T14:50:36.056Z,53.00
2019-02-16T14:53:07.424Z,52.60
2019-02-16T14:55:35.917Z,52.30
2019-02-16T14:58:09.887Z,52.20
2019-02-16T15:00:39.976Z,52.20
2019-02-16T15:03:08.462Z,52.10
2019-02-16T15:05:39.011Z,52.00
2019-02-16T15:08:07.690Z,52.00
2019-02-16T15:10:36.152Z,51.90
2019-02-16T15:13:04.813Z,51.70
2019-02-16T15:15:33.391Z,51.70
2019-02-16T15:18:03.731Z,51.40
2019-02-16T15:20:32.060Z,50.90
2019-02-16T15:23:00.534Z,50.30
2019-02-16T15:25:29.054Z,50.20
2019-02-16T15:27:57.569Z,50.10
2019-02-16T15:30:30.276Z,49.80
2019-02-16T15:32:58.799Z,49.50
2019-02-16T15:35:27.312Z,49.70
2019-02-16T15:37:56.383Z,49.80
2019-02-16T15:40:26.587Z,49.80
2019-02-16T15:42:55.104Z,49.60
2019-02-16T15:45:23.667Z,49.60
2019-02-16T15:47:52.190Z,50.30
2019-02-16T15:50:21.255Z,49.50
2019-02-16T15:52:51.046Z,49.60
2019-02-16T15:55:19.811Z,49.90
2019-02-16T15:57:48.489Z,50.20
2019-02-16T16:00:22.181Z,50.60
2019-02-16T16:02:50.770Z,50.80
2019-02-16T16:05:19.415Z,50.90
2019-02-16T16:07:49.793Z,51.00
2019-02-16T16:10:26.937Z,51.00
2019-02-16T16:13:13.279Z,51.10
2019-02-16T16:16:01.471Z,51.10
2019-02-16T16:18:46.723Z,51.10
2019-02-16T16:21:28.458Z,51.20
2019-02-16T16:24:15.043Z,51.40
2019-02-16T16:26:55.422Z,51.90
2019-02-16T16:29:25.695Z,52.30
2019-02-16T16:32:01.889Z,52.80
2019-02-16T16:34:49.021Z,53.30
2019-02-16T16:37:26.546Z,53.70
2019-02-16T16:39:59.995Z,54.40
2019-02-16T16:42:33.036Z,54.80
2019-02-16T16:45:09.399Z,55.30
2019-02-16T16:47:57.002Z,55.70
2019-02-16T16:50:43.206Z,56.10
2019-02-16T16:53:13.346Z,56.50
2019-02-16T16:55:46.842Z,57.20
2019-02-16T16:58:23.010Z,57.50
2019-02-16T17:00:54.750Z,57.80
2019-02-16T17:03:25.562Z,58.30
2019-02-16T17:05:59.429Z,58.60
2019-02-16T17:08:53.557Z,58.90
2019-02-16T17:11:36.606Z,58.80
2019-02-16T17:14:09.753Z,59.20
2019-02-16T17:17:09.301Z,59.60
2019-02-16T17:19:59.198Z,60.00
2019-02-16T17:22:31.955Z,60.60
2019-02-16T17:25:05.108Z,61.00
2019-02-16T17:27:40.697Z,61.60
2019-02-16T17:30:26.795Z,61.50
2019-02-16T17:33:02.089Z,62.90
2019-02-16T17:35:35.048Z,62.60
2019-02-16T17:38:23.188Z,63.00
2019-02-16T17:40:55.886Z,63.50
2019-02-16T17:43:26.195Z,64.60
2019-02-16T17:46:07.019Z,64.10
2019-02-16T17:48:39.211Z,64.50
2019-02-16T17:51:14.990Z,64.80
2019-02-16T17:53:52.868Z,65.10
2019-02-16T17:56:30.956Z,65.40
2019-02-16T17:59:03.803Z,65.70
2019-02-16T18:01:40.569Z,65.90
2019-02-16T18:04:19.544Z,66.10
2019-02-16T18:06:56.147Z,66.40
2019-02-16T18:09:26.243Z,66.60
2019-02-16T18:12:02.406Z,66.90
2019-02-16T18:14:37.788Z,67.20
2019-02-16T18:17:25.310Z,67.30
2019-02-16T18:20:00.458Z,67.50
2019-02-16T18:22:36.206Z,67.90
2019-02-16T18:25:17.512Z,68.30
2019-02-16T18:27:52.493Z,68.60
2019-02-16T18:30:34.633Z,68.90
2019-02-16T18:33:06.488Z,69.20
2019-02-16T18:35:38.459Z,69.30
2019-02-16T18:38:25.761Z,69.60
2019-02-16T18:41:12.144Z,69.70
2019-02-16T18:43:54.105Z,70.80
2019-02-16T18:46:28.710Z,69.70
2019-02-16T18:49:03.993Z,69.90
2019-02-16T18:51:35.371Z,70.20
2019-02-16T18:54:15.583Z,70.30
2019-02-16T18:57:06.647Z,70.40
2019-02-16T18:59:34.421Z,70.50
2019-02-16T19:02:11.914Z,70.60
2019-02-16T19:04:57.287Z,70.80
2019-02-16T19:07:44.908Z,70.80
2019-02-16T19:10:17.474Z,71.00
2019-02-16T19:12:49.195Z,71.10
2019-02-16T19:15:26.486Z,71.30
2019-02-16T19:17:58.158Z,71.50
2019-02-16T19:20:46.189Z,71.40
2019-02-16T19:23:17.454Z,71.60
2019-02-16T19:26:08.934Z,71.80
2019-02-16T19:28:57.401Z,72.10
2019-02-16T19:31:31.836Z,72.00
2019-02-16T19:34:08.711Z,72.10
2019-02-16T19:36:49.949Z,72.20
2019-02-16T19:39:33.103Z,72.30
2019-02-16T19:42:12.712Z,72.40
2019-02-16T19:44:44.428Z,72.80
2019-02-16T19:47:29.656Z,73.00
2019-02-16T19:50:03.728Z,73.40
2019-02-16T19:52:49.457Z,73.50
2019-02-16T19:55:36.661Z,73.60
2019-02-16T19:58:12.670Z,73.80
2019-02-16T20:00:47.006Z,73.80
2019-02-16T20:03:25.311Z,73.90
2019-02-16T20:06:13.591Z,74.10
2019-02-16T20:08:49.284Z,74.30
2019-02-16T20:11:24.083Z,74.50
2019-02-16T20:13:54.963Z,74.50
2019-02-16T20:16:30.155Z,74.60
2019-02-16T20:19:06.158Z,74.60
2019-02-16T20:21:39.381Z,74.60
2019-02-16T20:24:10.977Z,74.60
2019-02-16T20:26:41.289Z,74.80
2019-02-16T20:29:15.512Z,75.00
2019-02-16T20:32:01.818Z,75.20
2019-02-16T20:34:51.576Z,75.50
2019-02-16T20:37:23.238Z,75.40
2019-02-16T20:40:04.618Z,75.60
2019-02-16T20:42:44.377Z,75.80
2019-02-16T20:45:17.596Z,75.90
2019-02-16T20:47:54.136Z,75.90
2019-02-16T20:50:42.187Z,75.90
2019-02-16T20:53:22.981Z,76.10
2019-02-16T20:55:56.015Z,75.90
2019-02-16T20:58:35.582Z,76.00
2019-02-16T21:01:07.906Z,76.20
2019-02-16T21:03:48.633Z,76.20
2019-02-16T21:06:35.686Z,76.40
2019-02-16T21:09:13.374Z,76.50
2019-02-16T21:11:46.770Z,76.70
2019-02-16T21:14:16.967Z,76.80
2019-02-16T21:16:47.263Z,76.90
2019-02-16T21:19:20.867Z,77.00
2019-02-16T21:22:03.413Z,77.10
2019-02-16T21:24:43.667Z,77.10
2019-02-16T21:27:31.597Z,77.10
2019-02-16T21:30:09.163Z,77.30
2019-02-16T21:32:43.336Z,77.40
2019-02-16T21:35:29.023Z,77.30
2019-02-16T21:38:07.236Z,77.50
2019-02-16T21:40:45.529Z,77.30
2019-02-16T21:43:23.042Z,77.30
2019-02-16T21:45:55.541Z,77.40
2019-02-16T21:48:28.451Z,77.50
2019-02-16T21:51:10.975Z,77.70
2019-02-16T21:53:42.121Z,77.60
2019-02-16T21:56:32.126Z,77.70
2019-02-16T21:59:19.169Z,77.90
2019-02-16T22:01:48.165Z,78.00
2019-02-16T22:04:22.371Z,78.00
2019-02-16T22:07:08.898Z,78.10
2019-02-16T22:09:41.818Z,78.30
2019-02-16T22:12:26.347Z,78.40
2019-02-16T22:14:57.380Z,78.30
2019-02-16T22:17:28.164Z,78.50
2019-02-16T22:19:57.043Z,78.50
2019-02-16T22:22:25.539Z,78.50
2019-02-16T22:24:57.403Z,78.60
2019-02-16T22:27:29.923Z,78.80
2019-02-16T22:30:00.040Z,78.90
2019-02-16T22:32:32.217Z,79.00
2019-02-16T22:35:01.979Z,79.10
2019-02-16T22:37:46.659Z,79.00
2019-02-16T22:40:15.653Z,79.10
2019-02-16T22:42:50.236Z,79.20
2019-02-16T22:45:20.269Z,79.30
2019-02-16T22:47:59.438Z,79.50
2019-02-16T22:50:29.058Z,79.60
2019-02-16T22:52:59.192Z,79.60
2019-02-16T22:55:31.956Z,79.70
2019-02-16T22:58:17.136Z,79.80
2019-02-16T23:00:47.926Z,79.70
2019-02-16T23:03:20.674Z,79.90
2019-02-16T23:05:50.838Z,80.00
2019-02-16T23:08:24.537Z,80.20
2019-02-16T23:10:56.719Z,80.20
2019-02-16T23:13:26.954Z,80.30
2019-02-16T23:15:58.673Z,80.30
2019-02-16T23:18:28.234Z,80.40
2019-02-16T23:21:01.006Z,80.40
2019-02-16T23:23:29.568Z,80.50
2019-02-16T23:25:58.916Z,80.60
2019-02-16T23:28:27.441Z,80.80
2019-02-16T23:30:57.415Z,80.70
2019-02-16T23:33:26.964Z,80.60
2019-02-16T23:35:57.293Z,80.60
2019-02-16T23:38:27.303Z,80.70
2019-02-16T23:40:55.933Z,80.70
2019-02-16T23:43:24.468Z,80.70
2019-02-16T23:45:53.712Z,80.70
2019-02-16T23:48:42.140Z,80.70
2019-02-16T23:51:11.244Z,80.80
2019-02-16T23:53:40.337Z,80.90
2019-02-16T23:56:09.630Z,81.00
2019-02-16T23:58:48.658Z,80.90
